Time;durP1;ratioP1;P1;durP2;ratioP2;P2;SDS_P1;SDS_P2;PMS_P1;PMS_P2;Temp;Humidity;BMP_temperature;BMP_pressure;BME280_temperature;BME280_humidity;BME280_pressure;Samples;Min_cycle;Max_cycle;Signal;HPM_P1;HPM_P2
2024/01/13 06:01:08;;;;;;;64.83;22.70;;;;;;;;;;6043115;23;20526;-78
2024/01/13 06:03:34;;;;;;;62.10;21.30;;;;;;;;;;4969573;28;21038;-78
2024/01/13 06:06:00;;;;;;;65.53;22.30;;;;;;;;;;4962531;29;20420;-77
2024/01/13 06:08:26;;;;;;;63.53;21.20;;;;;;;;;;4956805;29;20540;-77
2024/01/13 06:10:52;;;;;;;69.17;23.17;;;;;;;;;;4971973;28;20572;-78
2024/01/13 06:13:18;;;;;;;65.30;22.13;;;;;;;;;;4961851;28;20424;-77
2024/01/13 06:15:44;;;;;;;83.13;23.93;;;;;;;;;;4984295;23;20487;-76
2024/01/13 06:18:10;;;;;;;88.07;24.87;;;;;;;;;;4976467;28;20527;-77
2024/01/13 06:20:36;;;;;;;71.60;23.13;;;;;;;;;;4976446;28;20400;-76
2024/01/13 06:23:02;;;;;;;89.93;24.10;;;;;;;;;;4976129;28;20452;-76
2024/01/13 06:25:28;;;;;;;79.50;24.27;;;;;;;;;;4975319;28;20530;-77
2024/01/13 06:27:54;;;;;;;67.87;22.70;;;;;;;;;;4975508;28;20412;-76
2024/01/13 06:30:20;;;;;;;72.23;22.13;;;;;;;;;;4975675;28;20519;-76
2024/01/13 06:32:46;;;;;;;66.60;22.80;;;;;;;;;;4975326;28;20503;-77
2024/01/13 06:35:13;;;;;;;70.83;22.30;;;;;;;;;;4975571;28;20419;-76
2024/01/13 06:37:38;;;;;;;61.53;22.97;;;;;;;;;;4974433;28;20919;-77
2024/01/13 06:40:05;;;;;;;69.67;24.17;;;;;;;;;;4974093;28;20423;-77
2024/01/13 06:42:34;;;;;;;66.43;21.57;;;;;;;;;;4975248;28;20462;-77
2024/01/13 06:45:00;;;;;;;77.73;23.80;;;;;;;;;;4974909;28;20420;-77
2024/01/13 06:47:26;;;;;;;68.70;22.60;;;;;;;;;;4975105;28;20821;-76
2024/01/13 06:49:52;;;;;;;87.63;23.03;;;;;;;;;;4974506;28;20419;-76
2024/01/13 06:52:18;;;;;;;79.97;22.63;;;;;;;;;;4955711;28;20455;-76
2024/01/13 06:54:44;;;;;;;77.43;22.70;;;;;;;;;;4955629;28;20783;-76
2024/01/13 06:57:10;;;;;;;71.47;21.80;;;;;;;;;;4955491;28;20437;-76
2024/01/13 06:59:36;;;;;;;77.17;22.57;;;;;;;;;;4954169;28;20498;-76
2024/01/13 07:02:02;;;;;;;81.93;25.10;;;;;;;;;;4956175;28;20795;-76
2024/01/13 07:04:28;;;;;;;63.50;24.00;;;;;;;;;;4967112;28;20433;-76
2024/01/13 07:06:54;;;;;;;84.23;25.77;;;;;;;;;;4958731;28;20436;-76
2024/01/13 07:09:20;;;;;;;104.63;23.63;;;;;;;;;;4958737;28;20523;-76
2024/01/13 07:11:49;;;;;;;67.93;22.07;;;;;;;;;;4956059;28;20436;-76
2024/01/13 07:14:15;;;;;;;82.70;24.17;;;;;;;;;;4956362;28;20861;-76
2024/01/13 07:16:41;;;;;;;81.53;24.60;;;;;;;;;;4954626;28;20986;-76
2024/01/13 07:19:07;;;;;;;94.43;25.73;;;;;;;;;;4955367;28;20409;-76
2024/01/13 07:21:33;;;;;;;68.90;21.47;;;;;;;;;;4955339;28;20413;-76
2024/01/13 07:23:59;;;;;;;70.43;22.27;;;;;;;;;;4953985;28;20468;-77
2024/01/13 07:26:25;;;;;;;70.67;22.77;;;;;;;;;;4954923;28;20436;-76
2024/01/13 07:28:51;;;;;;;91.90;25.80;;;;;;;;;;4954311;28;20428;-76
2024/01/13 07:31:17;;;;;;;96.43;25.70;;;;;;;;;;4969084;28;20423;-76
2024/01/13 07:33:43;;;;;;;78.67;25.87;;;;;;;;;;4958913;28;20507;-76
2024/01/13 07:36:09;;;;;;;92.10;28.73;;;;;;;;;;4955291;28;20996;-76
2024/01/13 07:38:35;;;;;;;113.97;31.73;;;;;;;;;;4955733;28;20421;-76
2024/01/13 07:41:01;;;;;;;88.07;27.40;;;;;;;;;;4955960;28;20554;-76
2024/01/13 07:43:27;;;;;;;85.20;25.13;;;;;;;;;;4955658;28;20460;-76
2024/01/13 07:45:53;;;;;;;90.40;26.17;;;;;;;;;;4963717;28;20436;-76
2024/01/13 07:48:19;;;;;;;78.20;26.37;;;;;;;;;;4974533;28;20404;-76
2024/01/13 07:50:45;;;;;;;83.63;27.40;;;;;;;;;;4974528;28;20444;-76
2024/01/13 07:53:11;;;;;;;95.10;29.00;;;;;;;;;;4971653;28;20423;-77
2024/01/13 07:55:37;;;;;;;88.37;26.13;;;;;;;;;;4975547;28;20573;-76
2024/01/13 07:58:03;;;;;;;95.67;27.70;;;;;;;;;;4960106;28;20432;-76
2024/01/13 08:00:29;;;;;;;90.80;26.83;;;;;;;;;;4955336;28;20429;-75
2024/01/13 08:02:55;;;;;;;82.83;26.77;;;;;;;;;;4954641;28;20987;-76
2024/01/13 08:05:21;;;;;;;88.20;27.50;;;;;;;;;;4954913;28;20443;-76
2024/01/13 08:07:48;;;;;;;83.67;24.70;;;;;;;;;;4956446;28;20883;-76
2024/01/13 08:10:14;;;;;;;74.57;24.73;;;;;;;;;;4972636;28;20513;-76
2024/01/13 08:12:40;;;;;;;77.50;25.63;;;;;;;;;;4990485;28;20392;-76
2024/01/13 08:15:07;;;;;;;73.87;22.87;;;;;;;;;;4987226;28;20467;-76
2024/01/13 08:17:33;;;;;;;78.63;24.83;;;;;;;;;;4991608;28;20947;-77
2024/01/13 08:19:59;;;;;;;72.30;22.40;;;;;;;;;;4972556;28;20959;-76
2024/01/13 08:22:24;;;;;;;73.47;22.70;;;;;;;;;;4960312;28;20463;-76
2024/01/13 08:24:50;;;;;;;71.20;25.27;;;;;;;;;;4953143;28;20424;-76
2024/01/13 08:27:16;;;;;;;77.33;23.60;;;;;;;;;;4954061;28;20924;-76
2024/01/13 08:29:42;;;;;;;77.90;22.63;;;;;;;;;;4954065;28;20448;-76
2024/01/13 08:32:08;;;;;;;72.33;22.80;;;;;;;;;;4954116;28;20416;-76
2024/01/13 08:34:34;;;;;;;73.90;21.80;;;;;;;;;;4954065;28;20415;-76
2024/01/13 08:37:00;;;;;;;79.40;22.57;;;;;;;;;;4953249;28;20531;-77
2024/01/13 08:39:26;;;;;;;80.20;22.37;;;;;;;;;;4967574;28;20423;-80
2024/01/13 08:41:52;;;;;;;73.20;21.17;;;;;;;;;;4967292;28;20420;-75
2024/01/13 08:44:18;;;;;;;67.73;21.17;;;;;;;;;;4953368;28;20862;-74
2024/01/13 08:46:44;;;;;;;61.37;20.60;;;;;;;;;;4961350;28;20438;-77
2024/01/13 08:49:10;;;;;;;64.47;21.47;;;;;;;;;;4952867;28;20866;-77
2024/01/13 08:51:36;;;;;;;78.07;21.40;;;;;;;;;;4954100;28;20817;-76
2024/01/13 08:54:03;;;;;;;64.97;22.13;;;;;;;;;;4952995;28;20427;-76
2024/01/13 08:56:29;;;;;;;61.90;20.13;;;;;;;;;;4953610;28;20444;-76
2024/01/13 08:58:55;;;;;;;60.03;20.30;;;;;;;;;;4952646;28;20812;-77
2024/01/13 09:01:21;;;;;;;51.43;17.40;;;;;;;;;;4953715;28;20413;-76
2024/01/13 09:03:47;;;;;;;50.83;18.53;;;;;;;;;;4952937;28;20809;-76
2024/01/13 09:06:13;;;;;;;42.00;14.27;;;;;;;;;;4956578;28;20848;-75
2024/01/13 09:08:39;;;;;;;45.37;14.83;;;;;;;;;;4964301;28;20672;-78
2024/01/13 09:11:05;;;;;;;42.23;12.63;;;;;;;;;;4966508;28;20408;-78
2024/01/13 09:13:31;;;;;;;50.70;14.93;;;;;;;;;;4972718;28;20416;-77
2024/01/13 09:15:57;;;;;;;48.20;14.33;;;;;;;;;;4955071;28;20456;-77
2024/01/13 09:18:23;;;;;;;36.93;12.00;;;;;;;;;;4954369;28;20409;-75
2024/01/13 09:20:49;;;;;;;33.13;10.83;;;;;;;;;;4954402;28;20416;-75
2024/01/13 09:23:15;;;;;;;35.10;11.53;;;;;;;;;;4959998;28;20548;-80
2024/01/13 09:25:41;;;;;;;36.13;10.67;;;;;;;;;;4956333;28;20544;-76
2024/01/13 09:28:07;;;;;;;32.03;10.87;;;;;;;;;;4956355;28;20417;-77
2024/01/13 09:30:33;;;;;;;32.43;13.17;;;;;;;;;;4954149;28;20800;-78
2024/01/13 09:32:59;;;;;;;31.80;11.63;;;;;;;;;;4950391;28;20796;-72
2024/01/13 09:35:30;;;;;;;36.03;13.60;;;;;;;;;;4954904;28;20545;-72
2024/01/13 09:37:56;;;;;;;32.37;10.47;;;;;;;;;;4957259;28;20462;-72
2024/01/13 09:40:22;;;;;;;28.10;9.70;;;;;;;;;;4962589;28;20436;-72
2024/01/13 09:42:57;;;;;;;20.40;8.67;;;;;;;;;;4957829;28;20515;-71
2024/01/13 09:45:23;;;;;;;21.00;8.07;;;;;;;;;;4959796;28;20439;-71
2024/01/13 09:47:50;;;;;;;25.23;9.13;;;;;;;;;;4962608;28;20935;-71
2024/01/13 09:50:16;;;;;;;25.40;8.17;;;;;;;;;;4958329;28;20511;-72
2024/01/13 09:52:43;;;;;;;34.43;9.93;;;;;;;;;;4956584;28;20907;-71
2024/01/13 09:55:13;;;;;;;14.80;7.30;;;;;;;;;;4956113;28;20417;-71
2024/01/13 09:57:39;;;;;;;20.53;7.73;;;;;;;;;;4956120;28;20424;-72
2024/01/13 10:00:06;;;;;;;30.50;8.97;;;;;;;;;;4956215;28;20424;-71
2024/01/13 10:02:32;;;;;;;23.47;8.03;;;;;;;;;;4955918;28;20477;-71
2024/01/13 10:04:58;;;;;;;17.00;7.50;;;;;;;;;;4956355;28;20577;-71
2024/01/13 10:07:24;;;;;;;18.67;8.27;;;;;;;;;;4964545;28;20475;-71
2024/01/13 10:09:50;;;;;;;21.67;8.47;;;;;;;;;;4956377;28;20421;-71
2024/01/13 10:12:16;;;;;;;19.77;8.03;;;;;;;;;;4954838;28;20991;-72
2024/01/13 10:14:45;;;;;;;25.07;9.17;;;;;;;;;;4955874;28;20901;-71
2024/01/13 10:17:11;;;;;;;29.40;10.67;;;;;;;;;;4956118;28;20548;-76
2024/01/13 10:19:38;;;;;;;26.33;9.20;;;;;;;;;;4953873;29;20505;-75
2024/01/13 10:22:05;;;;;;;17.30;7.90;;;;;;;;;;4953652;29;20420;-75
2024/01/13 10:24:31;;;;;;;22.43;8.60;;;;;;;;;;4959304;28;20417;-75
2024/01/13 10:26:57;;;;;;;17.43;7.43;;;;;;;;;;4954104;28;20447;-76
2024/01/13 10:29:24;;;;;;;17.13;7.00;;;;;;;;;;4954632;29;20530;-76
2024/01/13 10:31:53;;;;;;;22.60;8.47;;;;;;;;;;4954734;28;20413;-76
2024/01/13 10:34:19;;;;;;;17.97;8.63;;;;;;;;;;4955837;28;20548;-76
2024/01/13 10:36:45;;;;;;;20.03;9.47;;;;;;;;;;4954569;28;20829;-76
2024/01/13 10:39:11;;;;;;;29.90;10.57;;;;;;;;;;4956054;28;20422;-75
2024/01/13 10:41:40;;;;;;;19.97;9.07;;;;;;;;;;4956269;28;20416;-76
2024/01/13 10:44:09;;;;;;;27.97;10.60;;;;;;;;;;4954705;28;20489;-76
2024/01/13 10:46:37;;;;;;;26.03;8.67;;;;;;;;;;4954838;28;20444;-76
2024/01/13 10:49:05;;;;;;;21.03;8.33;;;;;;;;;;4956169;28;20459;-76
2024/01/13 10:51:37;;;;;;;22.33;9.10;;;;;;;;;;4956327;28;20488;-76
2024/01/13 10:54:03;;;;;;;30.27;9.67;;;;;;;;;;4975146;28;20444;-77
2024/01/13 10:56:30;;;;;;;19.97;8.50;;;;;;;;;;4956149;28;20493;-76
2024/01/13 10:58:59;;;;;;;30.87;10.23;;;;;;;;;;4959872;28;20503;-76
2024/01/13 11:01:26;;;;;;;31.17;11.70;;;;;;;;;;4974587;28;20488;-76
2024/01/13 11:03:53;;;;;;;23.50;9.80;;;;;;;;;;4975238;28;20962;-75
2024/01/13 11:06:19;;;;;;;21.83;9.70;;;;;;;;;;4974800;28;20514;-75
2024/01/13 11:08:46;;;;;;;19.17;9.80;;;;;;;;;;4975298;28;20942;-75
2024/01/13 11:11:13;;;;;;;26.97;11.30;;;;;;;;;;4974758;28;20416;-76
2024/01/13 11:13:48;;;;;;;29.43;9.90;;;;;;;;;;4975051;28;20922;-76
2024/01/13 11:16:15;;;;;;;23.10;10.67;;;;;;;;;;4974414;28;20517;-77
2024/01/13 11:18:48;;;;;;;22.10;8.33;;;;;;;;;;4975828;28;20420;-72
2024/01/13 11:21:16;;;;;;;29.17;9.90;;;;;;;;;;4974571;28;20494;-74
2024/01/13 11:23:46;;;;;;;29.07;12.57;;;;;;;;;;4974542;28;20460;-76
2024/01/13 11:26:14;;;;;;;27.53;11.20;;;;;;;;;;4974066;28;20911;-75
2024/01/13 11:28:48;;;;;;;27.40;12.10;;;;;;;;;;4974396;28;20417;-75
2024/01/13 11:31:30;;;;;;;31.60;11.60;;;;;;;;;;4974543;28;20914;-76
2024/01/13 11:33:56;;;;;;;29.03;11.77;;;;;;;;;;4974388;28;20423;-73
2024/01/13 11:36:22;;;;;;;25.43;10.53;;;;;;;;;;4973991;28;20645;-76
2024/01/13 11:38:48;;;;;;;33.27;10.87;;;;;;;;;;4974571;28;20412;-77
2024/01/13 11:41:16;;;;;;;30.47;12.93;;;;;;;;;;4974669;28;20430;-75
2024/01/13 11:43:45;;;;;;;25.03;11.10;;;;;;;;;;4974330;28;20474;-75
2024/01/13 11:46:11;;;;;;;25.03;11.57;;;;;;;;;;4974209;28;20980;-78
2024/01/13 11:48:39;;;;;;;29.40;12.00;;;;;;;;;;4973791;28;20427;-75
2024/01/13 11:51:08;;;;;;;26.80;11.23;;;;;;;;;;4954802;28;20539;-76
2024/01/13 11:53:39;;;;;;;30.10;11.13;;;;;;;;;;4955964;28;20413;-76
2024/01/13 11:56:05;;;;;;;31.57;11.70;;;;;;;;;;4961473;28;20432;-77
2024/01/13 11:58:32;;;;;;;30.30;12.27;;;;;;;;;;4954648;28;20421;-76
2024/01/13 12:00:58;;;;;;;22.83;10.70;;;;;;;;;;4960083;28;20906;-75
2024/01/13 12:03:24;;;;;;;27.50;11.33;;;;;;;;;;4960951;28;20496;-75
2024/01/13 12:05:50;;;;;;;26.20;12.87;;;;;;;;;;4946361;28;20574;-75
2024/01/13 12:08:17;;;;;;;26.67;11.80;;;;;;;;;;4960253;28;21056;-75
2024/01/13 12:10:43;;;;;;;30.03;11.43;;;;;;;;;;4959090;28;20428;-77
2024/01/13 12:13:19;;;;;;;28.90;12.30;;;;;;;;;;4952845;29;20419;-76
2024/01/13 12:18:21;;;;;;;28.67;10.70;;;;;;;;;;4987714;28;20490;-78
2024/01/13 12:20:48;;;;;;;26.73;11.80;;;;;;;;;;4992615;28;20469;-78
2024/01/13 12:23:14;;;;;;;32.63;12.50;;;;;;;;;;4984690;28;20483;-75
2024/01/13 12:25:41;;;;;;;38.03;12.57;;;;;;;;;;4974603;28;20433;-73
2024/01/13 12:28:07;;;;;;;26.67;12.07;;;;;;;;;;4973508;28;20416;-73
2024/01/13 12:30:35;;;;;;;25.10;11.70;;;;;;;;;;4974719;28;20850;-75
2024/01/13 12:33:02;;;;;;;23.17;9.87;;;;;;;;;;4974464;28;20436;-74
2024/01/13 12:35:28;;;;;;;24.70;11.63;;;;;;;;;;4975296;28;20408;-75
2024/01/13 12:37:54;;;;;;;25.30;10.50;;;;;;;;;;4975365;28;20562;-76
2024/01/13 12:40:20;;;;;;;32.33;11.10;;;;;;;;;;4975046;28;20428;-76
2024/01/13 12:42:46;;;;;;;28.10;10.80;;;;;;;;;;4973644;28;20474;-77
2024/01/13 12:45:15;;;;;;;26.77;11.27;;;;;;;;;;4978473;28;20425;-74
2024/01/13 12:47:41;;;;;;;30.03;11.00;;;;;;;;;;4977865;28;20776;-77
2024/01/13 12:50:10;;;;;;;28.83;12.10;;;;;;;;;;4988241;28;20425;-77
2024/01/13 12:52:39;;;;;;;36.20;11.60;;;;;;;;;;4974773;28;20493;-74
2024/01/13 12:55:06;;;;;;;23.13;9.87;;;;;;;;;;4973843;28;20420;-75
2024/01/13 12:57:32;;;;;;;22.23;9.80;;;;;;;;;;4974106;28;21006;-74
2024/01/13 12:59:58;;;;;;;20.93;9.33;;;;;;;;;;4975381;28;20512;-75
2024/01/13 13:02:24;;;;;;;22.33;9.70;;;;;;;;;;4980224;28;20487;-74
2024/01/13 13:04:50;;;;;;;24.87;10.47;;;;;;;;;;4976026;28;20941;-73
2024/01/13 13:07:16;;;;;;;23.50;10.07;;;;;;;;;;4992291;28;20447;-74
2024/01/13 13:09:43;;;;;;;21.83;10.07;;;;;;;;;;4982653;28;20926;-74
2024/01/13 13:12:10;;;;;;;21.43;10.13;;;;;;;;;;4984035;28;20910;-74
2024/01/13 13:14:35;;;;;;;27.23;11.67;;;;;;;;;;4983533;28;20496;-74
2024/01/13 13:17:01;;;;;;;28.53;11.10;;;;;;;;;;4981381;28;20479;-75
2024/01/13 13:19:27;;;;;;;26.13;10.03;;;;;;;;;;4979151;28;20418;-74
2024/01/13 13:21:53;;;;;;;21.10;9.53;;;;;;;;;;4977625;28;20427;-73
2024/01/13 13:24:21;;;;;;;26.87;11.60;;;;;;;;;;4978348;28;20467;-74
2024/01/13 13:26:47;;;;;;;24.77;10.17;;;;;;;;;;4981459;28;20432;-74
2024/01/13 13:29:14;;;;;;;27.03;11.97;;;;;;;;;;4989068;28;20422;-74
2024/01/13 13:31:41;;;;;;;25.13;10.60;;;;;;;;;;4996625;28;20414;-75
2024/01/13 13:34:07;;;;;;;30.07;12.93;;;;;;;;;;4996823;28;20411;-75
2024/01/13 13:36:33;;;;;;;28.43;11.53;;;;;;;;;;4996427;28;20438;-75
2024/01/13 13:38:59;;;;;;;30.60;11.60;;;;;;;;;;4995146;28;20472;-73
2024/01/13 13:41:25;;;;;;;23.90;10.57;;;;;;;;;;4996934;28;20411;-73
2024/01/13 13:43:51;;;;;;;21.90;9.93;;;;;;;;;;4996596;28;20460;-74
2024/01/13 13:46:17;;;;;;;29.30;11.70;;;;;;;;;;4996535;28;20845;-76
2024/01/13 13:48:43;;;;;;;19.03;9.90;;;;;;;;;;4996865;28;20407;-74
2024/01/13 13:51:11;;;;;;;25.90;10.43;;;;;;;;;;4996680;28;20411;-75
2024/01/13 13:53:37;;;;;;;23.10;10.30;;;;;;;;;;4995558;28;20419;-75
2024/01/13 13:56:03;;;;;;;24.43;9.50;;;;;;;;;;4981248;28;20530;-74
2024/01/13 13:58:29;;;;;;;25.00;11.03;;;;;;;;;;4978294;28;20431;-74
2024/01/13 14:00:55;;;;;;;24.00;10.07;;;;;;;;;;4992525;28;20427;-74
2024/01/13 14:03:21;;;;;;;28.23;10.10;;;;;;;;;;4997138;28;21035;-75
2024/01/13 14:05:47;;;;;;;27.00;9.67;;;;;;;;;;4996997;28;20427;-75
2024/01/13 14:08:13;;;;;;;24.87;10.50;;;;;;;;;;4996407;28;20411;-75
2024/01/13 14:10:40;;;;;;;26.87;11.77;;;;;;;;;;4995858;28;20418;-75
2024/01/13 14:13:06;;;;;;;23.00;10.40;;;;;;;;;;4995959;28;20414;-75
2024/01/13 14:15:32;;;;;;;22.10;9.70;;;;;;;;;;4994354;28;20478;-76
2024/01/13 14:17:58;;;;;;;18.40;8.90;;;;;;;;;;4995372;28;20470;-75
2024/01/13 14:20:25;;;;;;;20.40;9.83;;;;;;;;;;4992178;28;20433;-73
2024/01/13 14:22:52;;;;;;;24.40;9.27;;;;;;;;;;4974613;28;20491;-75
2024/01/13 14:25:18;;;;;;;24.97;9.40;;;;;;;;;;4976081;28;20420;-74
2024/01/13 14:27:45;;;;;;;29.87;12.00;;;;;;;;;;4975891;28;20459;-74
2024/01/13 14:30:11;;;;;;;26.03;11.30;;;;;;;;;;4976130;28;20450;-75
2024/01/13 14:32:37;;;;;;;22.80;10.27;;;;;;;;;;4975847;28;20996;-75
2024/01/13 14:35:04;;;;;;;21.27;10.90;;;;;;;;;;4979171;28;20435;-76
2024/01/13 14:37:30;;;;;;;28.60;11.90;;;;;;;;;;4976068;28;20495;-75
2024/01/13 14:39:56;;;;;;;25.97;11.63;;;;;;;;;;4976287;28;20476;-76
2024/01/13 14:42:22;;;;;;;23.23;10.83;;;;;;;;;;4975926;28;20470;-76
2024/01/13 14:44:47;;;;;;;24.00;11.07;;;;;;;;;;4994641;28;20425;-77
2024/01/13 14:47:14;;;;;;;24.30;10.60;;;;;;;;;;4996699;28;20454;-78
2024/01/13 14:49:40;;;;;;;20.70;11.10;;;;;;;;;;4988960;28;20486;-77
2024/01/13 14:52:08;;;;;;;21.13;10.80;;;;;;;;;;4983931;28;20483;-77
2024/01/13 14:54:34;;;;;;;24.87;9.77;;;;;;;;;;4975105;28;20424;-76
2024/01/13 14:57:03;;;;;;;22.00;9.80;;;;;;;;;;4974929;28;20446;-76
2024/01/13 14:59:29;;;;;;;25.43;11.00;;;;;;;;;;4976065;28;20419;-77
2024/01/13 15:01:55;;;;;;;29.87;12.67;;;;;;;;;;4974652;28;20422;-76
2024/01/13 15:04:21;;;;;;;21.80;10.50;;;;;;;;;;4990567;28;20955;-76
2024/01/13 15:06:47;;;;;;;23.60;10.27;;;;;;;;;;4977334;28;20435;-76
2024/01/13 15:09:13;;;;;;;22.60;11.00;;;;;;;;;;4981375;28;20421;-76
2024/01/13 15:11:39;;;;;;;23.87;11.53;;;;;;;;;;4986095;28;20946;-75
2024/01/13 15:14:05;;;;;;;20.03;9.70;;;;;;;;;;4982697;28;20423;-76
2024/01/13 15:16:31;;;;;;;22.87;10.40;;;;;;;;;;4981298;28;20981;-76
2024/01/13 15:18:57;;;;;;;25.00;9.47;;;;;;;;;;4987919;28;20844;-75
2024/01/13 15:21:23;;;;;;;19.63;9.67;;;;;;;;;;4982050;28;20427;-76
2024/01/13 15:23:49;;;;;;;24.33;9.63;;;;;;;;;;4985759;28;20529;-76
2024/01/13 15:26:15;;;;;;;18.43;9.73;;;;;;;;;;4994693;28;20443;-76
2024/01/13 15:28:41;;;;;;;26.33;12.03;;;;;;;;;;4978471;28;20423;-76
2024/01/13 15:31:07;;;;;;;28.23;11.10;;;;;;;;;;4976672;28;20444;-76
2024/01/13 15:33:33;;;;;;;23.73;10.13;;;;;;;;;;4975246;28;20412;-76
2024/01/13 15:35:59;;;;;;;27.07;12.13;;;;;;;;;;4975244;28;20942;-75
2024/01/13 15:38:25;;;;;;;25.20;11.40;;;;;;;;;;4983056;28;20424;-76
2024/01/13 15:40:51;;;;;;;29.10;10.33;;;;;;;;;;4983262;28;20415;-77
2024/01/13 15:43:17;;;;;;;28.10;11.47;;;;;;;;;;4988854;28;20538;-77
2024/01/13 15:45:43;;;;;;;35.87;12.13;;;;;;;;;;4992243;28;20416;-75
2024/01/13 15:48:09;;;;;;;41.07;13.00;;;;;;;;;;4991798;28;20454;-77
2024/01/13 15:50:37;;;;;;;34.33;13.87;;;;;;;;;;4992600;28;20429;-78
2024/01/13 15:53:03;;;;;;;39.03;14.00;;;;;;;;;;4994488;28;20412;-74
2024/01/13 15:55:29;;;;;;;39.47;15.30;;;;;;;;;;4987724;28;20423;-76
2024/01/13 15:57:55;;;;;;;36.53;14.40;;;;;;;;;;4980428;28;20945;-77
2024/01/13 16:00:21;;;;;;;39.37;15.90;;;;;;;;;;4983218;28;20495;-76
2024/01/13 16:02:47;;;;;;;45.10;16.73;;;;;;;;;;4983523;28;20473;-76
2024/01/13 16:05:13;;;;;;;45.80;16.07;;;;;;;;;;4979875;28;20990;-75
2024/01/13 16:07:39;;;;;;;49.20;18.57;;;;;;;;;;4983587;28;20439;-76
2024/01/13 16:10:06;;;;;;;52.30;17.70;;;;;;;;;;5004719;28;20844;-76
2024/01/13 16:12:32;;;;;;;48.70;17.70;;;;;;;;;;5001375;28;20432;-77
2024/01/13 16:14:58;;;;;;;50.50;16.87;;;;;;;;;;4988906;28;20511;-77
2024/01/13 16:17:24;;;;;;;48.73;16.20;;;;;;;;;;4978861;28;20479;-77
2024/01/13 16:19:50;;;;;;;52.33;19.00;;;;;;;;;;4978153;28;20424;-76
2024/01/13 16:22:16;;;;;;;56.07;18.57;;;;;;;;;;4986592;28;20458;-76
2024/01/13 16:24:42;;;;;;;51.33;16.50;;;;;;;;;;4987888;28;20428;-77
2024/01/13 16:27:08;;;;;;;53.70;19.63;;;;;;;;;;4988432;28;20816;-77
2024/01/13 16:29:34;;;;;;;53.97;19.00;;;;;;;;;;4988599;28;20413;-76
2024/01/13 16:32:00;;;;;;;44.00;16.40;;;;;;;;;;4996491;28;21037;-76
2024/01/13 16:34:26;;;;;;;40.70;17.70;;;;;;;;;;4981715;28;20419;-77
2024/01/13 16:36:52;;;;;;;38.03;16.20;;;;;;;;;;4975608;28;20497;-75
2024/01/13 16:39:18;;;;;;;50.83;19.00;;;;;;;;;;4980719;28;20416;-76
2024/01/13 16:41:44;;;;;;;47.60;18.73;;;;;;;;;;4975286;28;20426;-75
2024/01/13 16:44:10;;;;;;;57.50;18.13;;;;;;;;;;4975147;28;20474;-75
2024/01/13 16:46:36;;;;;;;53.57;17.87;;;;;;;;;;4975707;28;20435;-77
2024/01/13 16:49:02;;;;;;;54.07;17.87;;;;;;;;;;4986559;28;20417;-75
2024/01/13 16:51:28;;;;;;;60.27;19.63;;;;;;;;;;4995297;28;20454;-79
2024/01/13 16:53:54;;;;;;;63.50;19.30;;;;;;;;;;4979334;28;20420;-76
2024/01/13 16:56:20;;;;;;;63.87;20.60;;;;;;;;;;4991650;28;20583;-75
2024/01/13 16:58:46;;;;;;;56.50;19.87;;;;;;;;;;4986081;28;20419;-76
2024/01/13 17:01:12;;;;;;;68.93;24.17;;;;;;;;;;4987713;28;20909;-76
2024/01/13 17:03:40;;;;;;;82.63;22.20;;;;;;;;;;4994151;28;20498;-74
2024/01/13 17:06:06;;;;;;;77.50;23.33;;;;;;;;;;4993254;28;20447;-75
2024/01/13 17:08:32;;;;;;;69.13;24.20;;;;;;;;;;4992617;28;20918;-74
2024/01/13 17:10:58;;;;;;;75.93;21.20;;;;;;;;;;4993023;28;20454;-77
2024/01/13 17:13:24;;;;;;;70.00;22.73;;;;;;;;;;4987823;28;20428;-75
2024/01/13 17:15:50;;;;;;;85.43;22.57;;;;;;;;;;4985539;28;20432;-74
2024/01/13 17:18:16;;;;;;;70.33;22.40;;;;;;;;;;4998009;28;20423;-75
2024/01/13 17:20:42;;;;;;;73.73;23.37;;;;;;;;;;4977406;28;20431;-75
2024/01/13 17:23:08;;;;;;;66.77;23.80;;;;;;;;;;4991278;28;20486;-74
2024/01/13 17:25:34;;;;;;;76.17;23.10;;;;;;;;;;4977228;28;20727;-75
2024/01/13 17:28:00;;;;;;;82.10;23.20;;;;;;;;;;4977194;28;20427;-75
2024/01/13 17:30:26;;;;;;;76.93;23.77;;;;;;;;;;4980075;28;20416;-75
2024/01/13 17:32:54;;;;;;;60.90;21.23;;;;;;;;;;4981865;28;20811;-75
2024/01/13 17:35:21;;;;;;;69.20;21.40;;;;;;;;;;4976083;28;20418;-75
2024/01/13 17:37:47;;;;;;;64.73;21.40;;;;;;;;;;4974212;28;20411;-75
2024/01/13 17:40:13;;;;;;;72.10;20.27;;;;;;;;;;4976534;28;20499;-75
2024/01/13 17:42:40;;;;;;;72.23;19.20;;;;;;;;;;4989704;28;20565;-74
2024/01/13 17:45:07;;;;;;;63.00;19.83;;;;;;;;;;4986473;28;20447;-75
2024/01/13 17:47:33;;;;;;;59.30;19.33;;;;;;;;;;4992166;28;20443;-74
2024/01/13 17:50:00;;;;;;;51.70;18.13;;;;;;;;;;4984096;28;20439;-74
2024/01/13 17:52:26;;;;;;;53.47;17.53;;;;;;;;;;4995952;28;20427;-75
2024/01/13 17:54:52;;;;;;;55.10;18.17;;;;;;;;;;4991831;28;20455;-75
2024/01/13 17:57:18;;;;;;;58.77;18.40;;;;;;;;;;4989292;28;20431;-75
2024/01/13 17:59:44;;;;;;;52.00;18.53;;;;;;;;;;4981087;28;20428;-75
2024/01/13 18:02:13;;;;;;;50.67;18.20;;;;;;;;;;4980937;28;20428;-75
2024/01/13 18:04:39;;;;;;;52.47;19.13;;;;;;;;;;4976171;28;20525;-74
2024/01/13 18:07:06;;;;;;;58.77;19.27;;;;;;;;;;4977312;28;20949;-75
2024/01/13 18:09:33;;;;;;;64.20;18.70;;;;;;;;;;4978376;28;20435;-77
2024/01/13 18:11:59;;;;;;;49.07;18.43;;;;;;;;;;4998562;28;20781;-75
2024/01/13 18:14:25;;;;;;;54.47;18.50;;;;;;;;;;4976068;28;21009;-74
2024/01/13 18:16:51;;;;;;;50.67;18.20;;;;;;;;;;5002930;23;20593;-77
2024/01/13 18:19:17;;;;;;;51.60;18.33;;;;;;;;;;4976098;28;20408;-76
2024/01/13 18:21:44;;;;;;;52.70;17.30;;;;;;;;;;4975538;28;20795;-76
2024/01/13 18:24:10;;;;;;;71.77;20.87;;;;;;;;;;4977510;28;20463;-78
2024/01/13 18:26:37;;;;;;;65.10;18.97;;;;;;;;;;4980034;28;20787;-78
2024/01/13 18:29:03;;;;;;;68.43;21.17;;;;;;;;;;4975570;28;20420;-77
2024/01/13 18:31:29;;;;;;;62.27;20.30;;;;;;;;;;4976410;28;20914;-77
2024/01/13 18:33:55;;;;;;;69.13;21.27;;;;;;;;;;4976802;28;20510;-77
2024/01/13 18:36:28;;;;;;;61.67;18.80;;;;;;;;;;4976832;28;20432;-77
2024/01/13 18:38:55;;;;;;;63.13;19.60;;;;;;;;;;4978110;28;20428;-78
2024/01/13 18:41:21;;;;;;;68.73;20.87;;;;;;;;;;4975974;28;20415;-76
2024/01/13 18:43:47;;;;;;;53.77;19.93;;;;;;;;;;4970679;28;20636;-76
2024/01/13 18:46:13;;;;;;;73.27;20.43;;;;;;;;;;4975542;28;20507;-77
2024/01/13 18:48:40;;;;;;;57.37;18.23;;;;;;;;;;4974395;28;20580;-75
2024/01/13 18:51:08;;;;;;;57.77;18.50;;;;;;;;;;4975689;28;20858;-75
2024/01/13 18:53:35;;;;;;;55.50;17.70;;;;;;;;;;4971353;28;20415;-75
2024/01/13 18:56:01;;;;;;;59.67;19.50;;;;;;;;;;4973571;28;20434;-76
2024/01/13 18:58:27;;;;;;;60.47;19.07;;;;;;;;;;4975778;28;20967;-76
2024/01/13 19:00:53;;;;;;;54.23;17.93;;;;;;;;;;4975446;28;20431;-75
2024/01/13 19:03:20;;;;;;;51.73;18.37;;;;;;;;;;4975222;28;20563;-76
2024/01/13 19:05:47;;;;;;;50.43;19.00;;;;;;;;;;4974958;28;20421;-75
2024/01/13 19:08:16;;;;;;;59.30;20.60;;;;;;;;;;4974476;28;20455;-75
2024/01/13 19:10:42;;;;;;;54.63;17.17;;;;;;;;;;4966890;28;20432;-74
2024/01/13 19:13:08;;;;;;;57.27;18.87;;;;;;;;;;4967219;28;20498;-76
2024/01/13 19:15:34;;;;;;;55.37;17.97;;;;;;;;;;4972385;28;20484;-76
2024/01/13 19:18:00;;;;;;;57.73;19.00;;;;;;;;;;4974139;28;20470;-75
2024/01/13 19:20:26;;;;;;;56.17;19.27;;;;;;;;;;4965671;28;20491;-77
2024/01/13 19:22:52;;;;;;;57.33;18.57;;;;;;;;;;4964804;28;20639;-76
2024/01/13 19:25:17;;;;;;;56.13;17.90;;;;;;;;;;4972674;28;20427;-76
2024/01/13 19:27:44;;;;;;;71.23;19.97;;;;;;;;;;4969784;28;20438;-78
2024/01/13 19:30:10;;;;;;;61.00;16.90;;;;;;;;;;4970569;28;20421;-77
2024/01/13 19:32:36;;;;;;;51.27;18.70;;;;;;;;;;4973518;28;20511;-76
2024/01/13 19:35:02;;;;;;;55.07;18.30;;;;;;;;;;4974864;28;20855;-75
2024/01/13 19:37:28;;;;;;;54.40;19.90;;;;;;;;;;4974079;28;20936;-77
2024/01/13 19:39:54;;;;;;;47.63;17.00;;;;;;;;;;4974474;28;20475;-76
2024/01/13 19:42:20;;;;;;;69.80;19.87;;;;;;;;;;4974285;28;20955;-77
2024/01/13 19:44:47;;;;;;;49.47;18.07;;;;;;;;;;4973603;28;20992;-76
2024/01/13 19:47:13;;;;;;;51.47;19.50;;;;;;;;;;4966567;28;20519;-75
2024/01/13 19:49:39;;;;;;;54.80;17.83;;;;;;;;;;4974396;28;20483;-75
2024/01/13 19:52:05;;;;;;;57.03;18.77;;;;;;;;;;4974333;28;20448;-76
2024/01/13 19:54:31;;;;;;;59.43;21.70;;;;;;;;;;4974350;28;20440;-77
2024/01/13 19:56:58;;;;;;;64.47;21.20;;;;;;;;;;4973729;28;20799;-76
2024/01/13 19:59:24;;;;;;;60.30;20.03;;;;;;;;;;4974726;28;20416;-73
2024/01/13 20:01:50;;;;;;;75.00;22.10;;;;;;;;;;4973919;28;20428;-73
2024/01/13 20:04:16;;;;;;;62.63;18.83;;;;;;;;;;4973359;28;20468;-76
2024/01/13 20:06:42;;;;;;;74.53;22.23;;;;;;;;;;4973761;28;20439;-77
2024/01/13 20:09:09;;;;;;;75.57;21.93;;;;;;;;;;4973796;28;20907;-76
2024/01/13 20:11:37;;;;;;;76.47;21.47;;;;;;;;;;4973655;28;20404;-76
2024/01/13 20:14:03;;;;;;;61.67;20.40;;;;;;;;;;4973890;28;20427;-75
2024/01/13 20:16:29;;;;;;;60.03;21.43;;;;;;;;;;4985153;28;20520;-75